createdAt,value
2018-09-04T00:00:41.228Z,21.70
2018-09-04T00:05:44.282Z,21.70
2018-09-04T00:10:47.280Z,21.80
2018-09-04T00:15:50.310Z,21.70
2018-09-04T00:20:53.357Z,21.60
2018-09-04T00:25:56.380Z,21.50
2018-09-04T00:30:59.419Z,21.50
2018-09-04T00:36:02.451Z,21.50
2018-09-04T00:41:05.645Z,21.40
2018-09-04T00:46:08.682Z,21.30
2018-09-04T00:51:11.888Z,21.30
2018-09-04T00:56:14.948Z,21.30
2018-09-04T01:01:18.369Z,21.30
2018-09-04T01:06:21.479Z,21.20
2018-09-04T01:11:24.569Z,21.10
2018-09-04T01:16:27.721Z,21.00
2018-09-04T01:21:30.785Z,21.10
2018-09-04T01:26:33.815Z,21.00
2018-09-04T01:31:37.089Z,20.90
2018-09-04T01:36:40.128Z,20.80
2018-09-04T01:41:43.165Z,20.70
2018-09-04T01:46:46.203Z,20.60
2018-09-04T01:51:49.228Z,20.60
2018-09-04T01:56:52.266Z,20.50
2018-09-04T02:01:55.267Z,20.50
2018-09-04T02:06:58.298Z,20.40
2018-09-04T02:12:01.324Z,20.40
2018-09-04T02:17:04.343Z,20.30
2018-09-04T02:22:07.396Z,20.20
2018-09-04T02:27:10.429Z,20.20
2018-09-04T02:32:13.450Z,20.10
2018-09-04T02:37:16.458Z,20.10
2018-09-04T02:42:19.493Z,20.10
2018-09-04T02:47:22.521Z,20.00
2018-09-04T02:52:25.556Z,20.00
2018-09-04T02:57:28.581Z,20.00
2018-09-04T03:02:31.600Z,20.00
2018-09-04T03:07:34.652Z,19.90
2018-09-04T03:12:37.876Z,19.80
2018-09-04T03:17:40.908Z,19.80
2018-09-04T03:22:43.972Z,19.80
2018-09-04T03:27:46.995Z,19.70
2018-09-04T03:32:50.004Z,19.70
2018-09-04T03:37:53.035Z,19.70
2018-09-04T03:42:56.088Z,19.70
2018-09-04T03:47:59.120Z,19.70
2018-09-04T03:53:02.196Z,19.70
2018-09-04T03:58:05.290Z,19.60
2018-09-04T04:03:08.412Z,19.60
2018-09-04T04:08:11.629Z,19.50
2018-09-04T04:13:14.732Z,19.50
2018-09-04T04:18:17.830Z,19.50
2018-09-04T04:23:20.858Z,19.50
2018-09-04T04:28:24.129Z,19.60
2018-09-04T04:33:27.169Z,19.60
2018-09-04T04:38:30.206Z,19.50
2018-09-04T04:43:33.293Z,19.50
2018-09-04T04:48:36.308Z,19.50
2018-09-04T04:53:39.341Z,19.60
2018-09-04T04:58:42.368Z,19.60
2018-09-04T05:03:45.395Z,19.70
2018-09-04T05:08:49.328Z,19.70
2018-09-04T05:13:52.355Z,19.70
2018-09-04T05:18:55.396Z,19.70
2018-09-04T05:23:58.442Z,19.70
2018-09-04T05:29:01.509Z,19.70
2018-09-04T05:34:04.541Z,19.70
2018-09-04T05:39:09.324Z,19.80
2018-09-04T05:44:12.724Z,19.80
2018-09-04T05:49:18.204Z,19.90
2018-09-04T05:54:21.233Z,19.90
2018-09-04T05:59:24.325Z,20.00
2018-09-04T06:04:27.468Z,20.10
2018-09-04T06:09:30.544Z,20.10
2018-09-04T06:14:33.552Z,20.20
2018-09-04T06:19:36.579Z,20.30
2018-09-04T06:24:39.653Z,20.50
2018-09-04T06:29:42.816Z,20.70
2018-09-04T06:34:45.789Z,20.70
2018-09-04T06:39:48.821Z,20.70
2018-09-04T06:44:51.894Z,20.90
2018-09-04T06:49:54.915Z,21.00
2018-09-04T06:54:57.989Z,21.20
2018-09-04T07:00:01.129Z,21.20
2018-09-04T07:05:04.177Z,21.30
2018-09-04T07:10:07.476Z,21.40
2018-09-04T07:15:10.577Z,21.60
2018-09-04T07:20:13.629Z,21.70
2018-09-04T07:25:16.679Z,21.90
2018-09-04T07:30:19.818Z,22.10
2018-09-04T07:35:23.046Z,22.10
2018-09-04T07:40:26.121Z,22.30
2018-09-04T07:45:30.056Z,22.50
2018-09-04T07:50:33.092Z,22.40
2018-09-04T07:55:36.645Z,22.40
2018-09-04T08:00:39.664Z,22.40
2018-09-04T08:05:42.841Z,22.50
2018-09-04T08:10:45.864Z,22.40
2018-09-04T08:15:48.967Z,22.60
2018-09-04T08:20:52.089Z,22.70
2018-09-04T08:25:55.065Z,22.80
2018-09-04T08:30:58.098Z,23.20
2018-09-04T08:36:01.191Z,23.40
2018-09-04T08:41:04.226Z,23.40
2018-09-04T08:46:07.247Z,23.70
2018-09-04T08:51:10.289Z,24.80
2018-09-04T08:56:13.304Z,25.50
2018-09-04T09:01:16.337Z,25.50
2018-09-04T09:06:19.491Z,25.50
2018-09-04T09:11:22.518Z,26.00
2018-09-04T09:16:25.570Z,26.80
2018-09-04T09:21:28.821Z,27.00
2018-09-04T09:26:31.927Z,27.70
2018-09-04T09:31:35.069Z,27.70
2018-09-04T09:36:38.134Z,27.50
2018-09-04T09:41:41.141Z,27.30
2018-09-04T09:46:44.967Z,27.10
2018-09-04T09:51:48.064Z,27.00
2018-09-04T09:56:51.159Z,26.20
2018-09-04T10:01:59.647Z,26.20
2018-09-04T10:07:02.781Z,26.60
2018-09-04T10:12:05.933Z,27.40
2018-09-04T10:17:09.225Z,27.50
2018-09-04T10:22:12.261Z,28.70
2018-09-04T10:27:15.282Z,29.70
2018-09-04T10:32:18.959Z,29.10
2018-09-04T10:37:21.977Z,28.20
2018-09-04T10:42:30.946Z,29.50
2018-09-04T10:47:33.969Z,29.60
2018-09-04T10:52:37.021Z,30.20
2018-09-04T10:57:40.105Z,30.60
2018-09-04T11:02:43.129Z,30.50
2018-09-04T11:07:46.149Z,28.60
2018-09-04T11:12:49.188Z,27.80
2018-09-04T11:17:52.221Z,27.50
2018-09-04T11:22:55.268Z,27.00
2018-09-04T11:27:58.321Z,26.90
2018-09-04T11:33:01.371Z,28.60
2018-09-04T11:38:04.424Z,30.40
2018-09-04T11:43:07.792Z,31.50
2018-09-04T11:48:15.101Z,32.00
2018-09-04T11:53:18.146Z,32.30
2018-09-04T11:58:21.246Z,32.50
2018-09-04T12:03:24.298Z,30.70
2018-09-04T12:08:27.322Z,30.50
2018-09-04T12:13:30.398Z,31.30
2018-09-04T12:18:33.425Z,31.60
2018-09-04T12:23:36.568Z,32.00
2018-09-04T12:28:39.676Z,31.50
2018-09-04T12:33:42.785Z,31.10
2018-09-04T12:38:45.811Z,30.20
2018-09-04T12:43:48.880Z,30.10
2018-09-04T12:48:52.321Z,30.50
2018-09-04T12:53:55.372Z,29.50
2018-09-04T12:58:58.455Z,28.50
2018-09-04T13:04:01.559Z,29.40
2018-09-04T13:09:06.205Z,30.00
2018-09-04T13:14:09.185Z,30.00
2018-09-04T13:19:12.223Z,30.20
2018-09-04T13:24:15.288Z,29.70
2018-09-04T13:29:18.315Z,28.90
2018-09-04T13:34:21.994Z,28.10
2018-09-04T13:39:25.099Z,27.60
2018-09-04T13:44:28.199Z,28.30
2018-09-04T13:49:31.440Z,28.90
2018-09-04T13:54:34.327Z,29.30
2018-09-04T13:59:37.343Z,29.80
2018-09-04T14:04:40.537Z,30.30
2018-09-04T14:09:43.972Z,30.40
2018-09-04T14:14:47.061Z,29.70
2018-09-04T14:19:50.164Z,30.00
2018-09-04T14:24:53.199Z,30.10
2018-09-04T14:30:15.540Z,30.20
2018-09-04T14:34:59.315Z,30.60
2018-09-04T14:40:02.352Z,30.30
2018-09-04T14:45:05.432Z,30.60
2018-09-04T14:50:08.437Z,30.80
2018-09-04T14:55:11.707Z,31.20
2018-09-04T15:00:14.753Z,31.60
2018-09-04T15:05:17.780Z,31.60
2018-09-04T15:10:20.822Z,31.70
2018-09-04T15:15:24.051Z,31.10
2018-09-04T15:20:27.091Z,31.30
2018-09-04T15:25:30.150Z,30.80
2018-09-04T15:30:39.001Z,30.80
2018-09-04T15:35:42.058Z,30.70
2018-09-04T15:40:46.324Z,30.60
2018-09-04T15:45:49.504Z,30.20
2018-09-04T15:50:52.538Z,29.80
2018-09-04T15:55:55.742Z,30.00
2018-09-04T16:00:58.768Z,30.40
2018-09-04T16:06:01.816Z,30.60
2018-09-04T16:11:04.893Z,30.90
2018-09-04T16:16:08.034Z,31.40
2018-09-04T16:21:11.055Z,31.80
2018-09-04T16:26:14.215Z,31.30
2018-09-04T16:31:17.520Z,31.40
2018-09-04T16:36:20.570Z,31.30
2018-09-04T16:41:23.621Z,31.00
2018-09-04T16:46:26.624Z,30.30
2018-09-04T16:51:29.659Z,29.30
2018-09-04T16:56:32.692Z,28.70
2018-09-04T17:01:35.723Z,28.20
2018-09-04T17:06:38.770Z,28.20
2018-09-04T17:11:41.771Z,28.30
2018-09-04T17:16:44.792Z,27.70
2018-09-04T17:21:47.821Z,27.00
2018-09-04T17:26:50.861Z,26.50
2018-09-04T17:31:53.939Z,26.20
2018-09-04T17:36:56.945Z,25.90
2018-09-04T17:41:59.967Z,25.70
2018-09-04T17:47:03.020Z,25.40
2018-09-04T17:52:06.421Z,25.10
2018-09-04T17:57:09.858Z,25.00
2018-09-04T18:02:12.900Z,24.80
2018-09-04T18:07:16.060Z,24.60
2018-09-04T18:12:19.088Z,24.50
2018-09-04T18:17:22.120Z,24.30
2018-09-04T18:22:25.183Z,24.20
2018-09-04T18:27:28.366Z,24.10
2018-09-04T18:32:31.568Z,24.20
2018-09-04T18:37:34.592Z,24.00
2018-09-04T18:42:37.736Z,24.00
2018-09-04T18:47:42.113Z,23.90
2018-09-04T18:52:45.306Z,23.80
2018-09-04T18:57:48.813Z,23.90
2018-09-04T19:02:51.887Z,23.60
2018-09-04T19:07:55.000Z,23.50
2018-09-04T19:12:58.105Z,23.50
2018-09-04T19:18:01.154Z,23.40
2018-09-04T19:23:04.173Z,23.30
2018-09-04T19:28:07.208Z,23.30
2018-09-04T19:33:10.317Z,23.20
2018-09-04T19:38:13.363Z,23.10
2018-09-04T19:43:16.479Z,23.10
2018-09-04T19:48:19.497Z,22.90
2018-09-04T19:53:22.516Z,22.80
2018-09-04T19:58:25.543Z,22.70
2018-09-04T20:03:28.576Z,22.60
2018-09-04T20:08:31.616Z,22.40
2018-09-04T20:13:34.988Z,22.20
2018-09-04T20:18:38.244Z,22.10
2018-09-04T20:23:42.438Z,22.10
2018-09-04T20:28:45.802Z,22.00
2018-09-04T20:33:48.904Z,22.00
2018-09-04T20:38:51.960Z,21.90
2018-09-04T20:43:55.023Z,21.90
2018-09-04T20:48:58.135Z,21.80
2018-09-04T20:54:01.218Z,21.80
2018-09-04T20:59:15.793Z,21.80
2018-09-04T21:04:30.601Z,21.70
2018-09-04T21:09:40.392Z,21.60
2018-09-04T21:14:43.448Z,21.50
2018-09-04T21:19:46.513Z,21.50
2018-09-04T21:24:49.787Z,21.50
2018-09-04T21:29:52.852Z,21.40
2018-09-04T21:34:55.903Z,21.30
2018-09-04T21:39:58.939Z,21.20
2018-09-04T21:45:02.315Z,21.10
2018-09-04T21:50:05.726Z,21.10
2018-09-04T21:55:09.104Z,21.10
2018-09-04T22:00:12.194Z,21.00
2018-09-04T22:05:15.387Z,20.90
2018-09-04T22:10:18.536Z,20.80
2018-09-04T22:15:21.655Z,20.70
2018-09-04T22:20:24.863Z,20.60
2018-09-04T22:25:28.165Z,20.50
2018-09-04T22:30:31.284Z,20.60
2018-09-04T22:35:34.349Z,20.50
2018-09-04T22:40:37.509Z,20.40
2018-09-04T22:45:40.683Z,20.40
2018-09-04T22:51:47.388Z,20.40
2018-09-04T22:56:50.440Z,20.30
2018-09-04T23:01:53.537Z,20.20
2018-09-04T23:06:56.583Z,20.10
2018-09-04T23:11:59.707Z,20.10
2018-09-04T23:17:02.752Z,20.10
2018-09-04T23:22:05.808Z,20.00
2018-09-04T23:27:08.904Z,20.00
2018-09-04T23:32:11.964Z,20.00
2018-09-04T23:37:15.028Z,19.90
2018-09-04T23:42:18.084Z,19.80
2018-09-04T23:47:21.134Z,19.80
2018-09-04T23:52:24.223Z,19.70
2018-09-04T23:57:27.326Z,19.60
